PWSweather.com
Personal Weather Stations
Station Observations
KAZTUCSO57
Countryside Manor, Tucson, AZ 85742

Countryside ManorTucson, AZ 85742

Lat: 32.3692, Lon: -111.066

Elevation: 2307

Station Type: Davis VP Pro+ 6163

http://frogville.us

High Low Average
Temperature 77.6°F25.3°C 57.6°F14.2°C 65.7°F18.7°C
Dew Point 59.6°F15.3°C 53.0°F11.7°C 56.6°F13.7°C
Winds 3.5 mph 5.6 kmh Calm Calm 1.0 mph S1.6 kmh S
Wind Gusts 5.8 mph9.3 kmh -- 2.0 mph3.2 kmh
Humidity 94% 43% 75%
Pressure 29.90 in1012.5 mb 29.77 in1008.1 mb -
Precipitation 0.16 in4.1 mm - -
Hour Temp Dew Point Humidity Winds Wind Gusts Pressure Precip Precip Rate Daily Precip Total
12:00 AM 61.3°F16.3°C 59.2°F15.1°C 93% Calm Calm -- 29.78 in1008.5 mb - 0.00 in0.0 mm 0.00 in0.0 mm
12:10 AM 61.3°F16.3°C 59.6°F15.3°C 94% Calm Calm -- 29.78 in1008.5 mb - 0.00 in0.0 mm 0.00 in0.0 mm
12:20 AM 61.1°F16.2°C 59.4°F15.2°C 94% Calm Calm -- 29.78 in1008.5 mb - 0.00 in0.0 mm 0.00 in0.0 mm
12:30 AM 61.1°F16.2°C 59.1°F15.1°C 93% Calm Calm -- 29.78 in1008.5 mb - 0.00 in0.0 mm 0.00 in0.0 mm
12:40 AM 61.1°F16.2°C 59.4°F15.2°C 94% Calm Calm -- 29.78 in1008.5 mb - 0.00 in0.0 mm 0.00 in0.0 mm
12:50 AM 61.0°F16.1°C 59.3°F15.2°C 94% Calm Calm -- 29.79 in1008.8 mb - 0.00 in0.0 mm 0.00 in0.0 mm
01:00 AM 61.0°F16.1°C 59.3°F15.2°C 94% Calm Calm -- 29.79 in1008.8 mb - 0.00 in0.0 mm 0.00 in0.0 mm
01:10 AM 60.9°F16.1°C 59.2°F15.1°C 94% Calm Calm -- 29.79 in1008.8 mb - 0.00 in0.0 mm 0.00 in0.0 mm
01:20 AM 60.9°F16.1°C 59.2°F15.1°C 94% Calm Calm -- 29.79 in1008.8 mb - 0.00 in0.0 mm 0.00 in0.0 mm
01:30 AM 60.9°F16.1°C 59.2°F15.1°C 94% Calm Calm -- 29.79 in1008.8 mb - 0.00 in0.0 mm 0.00 in0.0 mm
01:40 AM 61.0°F16.1°C 59.3°F15.2°C 94% Calm Calm -- 29.79 in1008.8 mb - 0.00 in0.0 mm 0.00 in0.0 mm
01:50 AM 61.0°F16.1°C 59.3°F15.2°C 94% Calm Calm -- 29.79 in1008.8 mb - 0.00 in0.0 mm 0.00 in0.0 mm
02:00 AM 61.1°F16.2°C 59.4°F15.2°C 94% Calm Calm -- 29.79 in1008.8 mb - 0.00 in0.0 mm 0.00 in0.0 mm
02:10 AM 61.2°F16.2°C 59.5°F15.3°C 94% Calm Calm -- 29.79 in1008.8 mb - 0.00 in0.0 mm 0.00 in0.0 mm
02:20 AM 61.2°F16.2°C 59.5°F15.3°C 94% Calm Calm -- 29.79 in1008.8 mb - 0.00 in0.0 mm 0.00 in0.0 mm
02:30 AM 61.3°F16.3°C 59.6°F15.3°C 94% Calm Calm 1.2 mph1.9 kmh 29.79 in1008.8 mb - 0.00 in0.0 mm 0.00 in0.0 mm
02:40 AM 61.3°F16.3°C 59.6°F15.3°C 94% Calm Calm -- 29.78 in1008.5 mb - 0.00 in0.0 mm 0.00 in0.0 mm
02:50 AM 61.3°F16.3°C 59.6°F15.3°C 94% Calm Calm -- 29.78 in1008.5 mb - 0.00 in0.0 mm 0.00 in0.0 mm
03:00 AM 61.2°F16.2°C 59.5°F15.3°C 94% Calm Calm -- 29.77 in1008.1 mb - 0.00 in0.0 mm 0.00 in0.0 mm
03:10 AM 61.1°F16.2°C 59.4°F15.2°C 94% Calm Calm -- 29.77 in1008.1 mb - 0.00 in0.0 mm 0.00 in0.0 mm
03:20 AM 61.2°F16.2°C 59.5°F15.3°C 94% Calm Calm -- 29.77 in1008.1 mb - 0.00 in0.0 mm 0.00 in0.0 mm
03:30 AM 61.2°F16.2°C 59.5°F15.3°C 94% Calm Calm 1.2 mph1.9 kmh 29.78 in1008.5 mb - 0.00 in0.0 mm 0.00 in0.0 mm
03:40 AM 61.2°F16.2°C 59.5°F15.3°C 94% Calm Calm -- 29.77 in1008.1 mb - 0.00 in0.0 mm 0.00 in0.0 mm
03:50 AM 61.2°F16.2°C 59.5°F15.3°C 94% Calm Calm -- 29.77 in1008.1 mb - 0.00 in0.0 mm 0.00 in0.0 mm
04:00 AM 60.6°F15.9°C 58.9°F14.9°C 94% 3.5 mph WSW5.6 kmh WSW 4.6 mph7.4 kmh 29.79 in1008.8 mb - 0.06 in1.5 mm 0.06 in1.5 mm
04:10 AM 60.1°F15.6°C 58.4°F14.7°C 94% Calm Calm 1.2 mph1.9 kmh 29.79 in1008.8 mb - 0.08 in2.0 mm 0.13 in3.3 mm
04:20 AM 59.7°F15.4°C 58.0°F14.4°C 94% Calm Calm 1.2 mph1.9 kmh 29.79 in1008.8 mb - 0.01 in0.3 mm 0.14 in3.6 mm
04:30 AM 59.5°F15.3°C 57.8°F14.3°C 94% Calm Calm -- 29.80 in1009.1 mb - 0.00 in0.0 mm 0.14 in3.6 mm
04:40 AM 59.4°F15.2°C 57.7°F14.3°C 94% Calm Calm 1.2 mph1.9 kmh 29.79 in1008.8 mb - 0.00 in0.0 mm 0.14 in3.6 mm
04:50 AM 59.4°F15.2°C 57.7°F14.3°C 94% Calm Calm 1.2 mph1.9 kmh 29.80 in1009.1 mb - 0.00 in0.0 mm 0.14 in3.6 mm
05:00 AM 59.5°F15.3°C 57.8°F14.3°C 94% Calm Calm -- 29.80 in1009.1 mb - 0.00 in0.0 mm 0.14 in3.6 mm
05:10 AM 59.5°F15.3°C 57.8°F14.3°C 94% Calm Calm -- 29.80 in1009.1 mb - 0.00 in0.0 mm 0.14 in3.6 mm
05:20 AM 59.6°F15.3°C 57.8°F14.3°C 94% Calm Calm -- 29.81 in1009.5 mb - 0.00 in0.0 mm 0.14 in3.6 mm
05:30 AM 59.5°F15.3°C 57.8°F14.3°C 94% Calm Calm -- 29.80 in1009.1 mb - 0.00 in0.0 mm 0.14 in3.6 mm
05:40 AM 59.3°F15.2°C 57.6°F14.2°C 94% Calm Calm 2.3 mph3.7 kmh 29.81 in1009.5 mb - 0.00 in0.0 mm 0.14 in3.6 mm
05:50 AM 59.0°F15.0°C 57.3°F14.1°C 94% Calm Calm -- 29.81 in1009.5 mb - 0.00 in0.0 mm 0.14 in3.6 mm
06:00 AM 58.9°F14.9°C 57.2°F14.0°C 94% Calm Calm -- 29.82 in1009.8 mb - 0.00 in0.0 mm 0.14 in3.6 mm
06:10 AM 58.8°F14.9°C 57.1°F13.9°C 94% Calm Calm -- 29.82 in1009.8 mb - 0.00 in0.0 mm 0.14 in3.6 mm
06:20 AM 58.6°F14.8°C 56.9°F13.8°C 94% Calm Calm -- 29.82 in1009.8 mb - 0.00 in0.0 mm 0.14 in3.6 mm
06:30 AM 58.4°F14.7°C 56.7°F13.7°C 94% Calm Calm 1.2 mph1.9 kmh 29.82 in1009.8 mb - 0.00 in0.0 mm 0.14 in3.6 mm
06:40 AM 58.0°F14.4°C 56.3°F13.5°C 94% Calm Calm 2.3 mph3.7 kmh 29.82 in1009.8 mb - 0.00 in0.0 mm 0.14 in3.6 mm
06:50 AM 57.6°F14.2°C 55.9°F13.3°C 94% 1.2 mph NE1.9 kmh NE 2.3 mph3.7 kmh 29.83 in1010.2 mb - 0.00 in0.0 mm 0.14 in3.6 mm
07:00 AM 57.6°F14.2°C 55.9°F13.3°C 94% 1.2 mph N1.9 kmh N 2.3 mph3.7 kmh 29.83 in1010.2 mb - 0.00 in0.0 mm 0.14 in3.6 mm
07:10 AM 57.9°F14.4°C 56.2°F13.4°C 94% Calm Calm 1.2 mph1.9 kmh 29.84 in1010.5 mb - 0.00 in0.0 mm 0.14 in3.6 mm
07:20 AM 58.4°F14.7°C 56.7°F13.7°C 94% 1.2 mph N1.9 kmh N 2.3 mph3.7 kmh 29.84 in1010.5 mb - 0.00 in0.0 mm 0.14 in3.6 mm
07:30 AM 59.1°F15.1°C 57.4°F14.1°C 94% 1.2 mph NE1.9 kmh NE 2.3 mph3.7 kmh 29.84 in1010.5 mb - 0.00 in0.0 mm 0.14 in3.6 mm
07:40 AM 59.3°F15.2°C 57.6°F14.2°C 94% 1.2 mph NE1.9 kmh NE 3.5 mph5.6 kmh 29.85 in1010.8 mb - 0.00 in0.0 mm 0.14 in3.6 mm
07:50 AM 59.9°F15.5°C 58.2°F14.6°C 94% 1.2 mph NNE1.9 kmh NNE 3.5 mph5.6 kmh 29.85 in1010.8 mb - 0.00 in0.0 mm 0.14 in3.6 mm
08:00 AM 60.2°F15.7°C 58.5°F14.7°C 94% Calm Calm -- 29.86 in1011.2 mb - 0.00 in0.0 mm 0.14 in3.6 mm
08:10 AM 60.6°F15.9°C 58.9°F14.9°C 94% Calm Calm 1.2 mph1.9 kmh 29.86 in1011.2 mb - 0.00 in0.0 mm 0.14 in3.6 mm
08:20 AM 61.2°F16.2°C 59.2°F15.1°C 93% Calm Calm 1.2 mph1.9 kmh 29.86 in1011.2 mb - 0.00 in0.0 mm 0.14 in3.6 mm
08:30 AM 61.6°F16.4°C 59.2°F15.1°C 92% 1.2 mph SW1.9 kmh SW 3.5 mph5.6 kmh 29.87 in1011.5 mb - 0.00 in0.0 mm 0.14 in3.6 mm
08:40 AM 61.8°F16.6°C 59.1°F15.1°C 91% 2.3 mph SW3.7 kmh SW 3.5 mph5.6 kmh 29.88 in1011.9 mb - 0.00 in0.0 mm 0.14 in3.6 mm
08:50 AM 61.3°F16.3°C 58.6°F14.8°C 91% 2.3 mph SW3.7 kmh SW 3.5 mph5.6 kmh 29.89 in1012.2 mb - 0.01 in0.3 mm 0.15 in3.8 mm
09:00 AM 61.1°F16.2°C 58.5°F14.7°C 91% 1.2 mph WSW1.9 kmh WSW 3.5 mph5.6 kmh 29.89 in1012.2 mb - 0.00 in0.0 mm 0.15 in3.8 mm
09:10 AM 60.9°F16.1°C 58.3°F14.6°C 91% 1.2 mph W1.9 kmh W 2.3 mph3.7 kmh 29.89 in1012.2 mb - 0.00 in0.0 mm 0.15 in3.8 mm
09:20 AM 61.1°F16.2°C 58.5°F14.7°C 91% 1.2 mph WSW1.9 kmh WSW 2.3 mph3.7 kmh 29.90 in1012.5 mb - 0.00 in0.0 mm 0.15 in3.8 mm
09:30 AM 61.5°F16.4°C 58.8°F14.9°C 91% Calm Calm 2.3 mph3.7 kmh 29.89 in1012.2 mb - 0.00 in0.0 mm 0.15 in3.8 mm
09:40 AM 62.0°F16.7°C 59.3°F15.2°C 91% Calm Calm 1.2 mph1.9 kmh 29.89 in1012.2 mb - 0.00 in0.0 mm 0.15 in3.8 mm
09:50 AM 62.5°F16.9°C 59.5°F15.3°C 90% Calm Calm 1.2 mph1.9 kmh 29.89 in1012.2 mb - 0.00 in0.0 mm 0.15 in3.8 mm
10:00 AM 62.8°F17.1°C 59.5°F15.3°C 89% Calm Calm -- 29.89 in1012.2 mb - 0.00 in0.0 mm 0.15 in3.8 mm
10:10 AM 63.3°F17.4°C 59.0°F15.0°C 86% Calm Calm -- 29.89 in1012.2 mb - 0.00 in0.0 mm 0.15 in3.8 mm
10:20 AM 63.9°F17.7°C 59.0°F15.0°C 84% Calm Calm 1.2 mph1.9 kmh 29.89 in1012.2 mb - 0.00 in0.0 mm 0.15 in3.8 mm
10:30 AM 65.3°F18.5°C 58.7°F14.8°C 79% Calm Calm -- 29.89 in1012.2 mb - 0.00 in0.0 mm 0.15 in3.8 mm
10:40 AM 67.2°F19.6°C 56.7°F13.7°C 69% Calm Calm -- 29.89 in1012.2 mb - 0.00 in0.0 mm 0.15 in3.8 mm
10:50 AM 69.0°F20.6°C 57.2°F14.0°C 66% Calm Calm 2.3 mph3.7 kmh 29.88 in1011.9 mb - 0.00 in0.0 mm 0.15 in3.8 mm
11:00 AM 70.3°F21.3°C 57.1°F13.9°C 63% Calm Calm -- 29.88 in1011.9 mb - 0.00 in0.0 mm 0.15 in3.8 mm
11:10 AM 70.5°F21.4°C 57.7°F14.3°C 64% 1.2 mph W1.9 kmh W 3.5 mph5.6 kmh 29.88 in1011.9 mb - 0.00 in0.0 mm 0.15 in3.8 mm
11:20 AM 70.1°F21.2°C 57.8°F14.3°C 65% 2.3 mph SW3.7 kmh SW 3.5 mph5.6 kmh 29.88 in1011.9 mb - 0.00 in0.0 mm 0.15 in3.8 mm
11:30 AM 70.1°F21.2°C 57.8°F14.3°C 65% Calm Calm 3.5 mph5.6 kmh 29.88 in1011.9 mb - 0.00 in0.0 mm 0.15 in3.8 mm
11:40 AM 71.0°F21.7°C 57.3°F14.1°C 62% 1.2 mph SW1.9 kmh SW 1.2 mph1.9 kmh 29.88 in1011.9 mb - 0.00 in0.0 mm 0.15 in3.8 mm
11:50 AM 72.2°F22.3°C 55.6°F13.1°C 56% Calm Calm 1.2 mph1.9 kmh 29.87 in1011.5 mb - 0.00 in0.0 mm 0.15 in3.8 mm
12:00 PM 73.4°F23.0°C 56.3°F13.5°C 55% 1.2 mph W1.9 kmh W 2.3 mph3.7 kmh 29.87 in1011.5 mb - 0.00 in0.0 mm 0.15 in3.8 mm
12:10 PM 73.8°F23.2°C 56.6°F13.7°C 55% 1.2 mph W1.9 kmh W 2.3 mph3.7 kmh 29.87 in1011.5 mb - 0.01 in0.3 mm 0.16 in4.1 mm
12:20 PM 73.4°F23.0°C 56.2°F13.4°C 55% 1.2 mph SSW1.9 kmh SSW 3.5 mph5.6 kmh 29.86 in1011.2 mb - 0.00 in0.0 mm 0.16 in4.1 mm
12:30 PM 73.4°F23.0°C 56.2°F13.4°C 55% Calm Calm 3.5 mph5.6 kmh 29.86 in1011.2 mb - 0.00 in0.0 mm 0.16 in4.1 mm
12:40 PM 73.5°F23.1°C 55.9°F13.3°C 54% 1.2 mph SSW1.9 kmh SSW 3.5 mph5.6 kmh 29.86 in1011.2 mb - 0.00 in0.0 mm 0.16 in4.1 mm
12:50 PM 74.3°F23.5°C 55.0°F12.8°C 51% 1.2 mph W1.9 kmh W 2.3 mph3.7 kmh 29.85 in1010.8 mb - 0.00 in0.0 mm 0.16 in4.1 mm
01:00 PM 75.4°F24.1°C 55.5°F13.1°C 50% 1.2 mph WSW1.9 kmh WSW 2.3 mph3.7 kmh 29.85 in1010.8 mb - 0.00 in0.0 mm 0.16 in4.1 mm
01:10 PM 76.0°F24.4°C 56.0°F13.3°C 50% 2.3 mph W3.7 kmh W 3.5 mph5.6 kmh 29.84 in1010.5 mb - 0.00 in0.0 mm 0.16 in4.1 mm
01:20 PM 76.0°F24.4°C 55.5°F13.1°C 49% 2.3 mph WSW3.7 kmh WSW 3.5 mph5.6 kmh 29.84 in1010.5 mb - 0.00 in0.0 mm 0.16 in4.1 mm
01:30 PM 76.6°F24.8°C 54.9°F12.7°C 47% 1.2 mph SW1.9 kmh SW 3.5 mph5.6 kmh 29.84 in1010.5 mb - 0.00 in0.0 mm 0.16 in4.1 mm
01:40 PM 77.0°F25.0°C 55.2°F12.9°C 47% 2.3 mph WNW3.7 kmh WNW 5.8 mph9.3 kmh 29.83 in1010.2 mb - 0.00 in0.0 mm 0.16 in4.1 mm
01:50 PM 77.3°F25.2°C 54.3°F12.4°C 45% 1.2 mph SE1.9 kmh SE 2.3 mph3.7 kmh 29.83 in1010.2 mb - 0.00 in0.0 mm 0.16 in4.1 mm
02:00 PM 77.1°F25.1°C 54.7°F12.6°C 46% 2.3 mph SW3.7 kmh SW 3.5 mph5.6 kmh 29.83 in1010.2 mb - 0.00 in0.0 mm 0.16 in4.1 mm
02:10 PM 76.4°F24.7°C 53.5°F11.9°C 45% 1.2 mph NW1.9 kmh NW 2.3 mph3.7 kmh 29.83 in1010.2 mb - 0.00 in0.0 mm 0.16 in4.1 mm
02:20 PM 76.9°F24.9°C 55.1°F12.8°C 47% 1.2 mph W1.9 kmh W 3.5 mph5.6 kmh 29.83 in1010.2 mb - 0.00 in0.0 mm 0.16 in4.1 mm
02:30 PM 77.0°F25.0°C 53.4°F11.9°C 44% 1.2 mph SSW1.9 kmh SSW 3.5 mph5.6 kmh 29.83 in1010.2 mb - 0.00 in0.0 mm 0.16 in4.1 mm
02:40 PM 76.9°F24.9°C 53.9°F12.2°C 45% 2.3 mph SW3.7 kmh SW 3.5 mph5.6 kmh 29.83 in1010.2 mb - 0.00 in0.0 mm 0.16 in4.1 mm
02:50 PM 77.1°F25.1°C 54.7°F12.6°C 46% 2.3 mph SW3.7 kmh SW 3.5 mph5.6 kmh 29.83 in1010.2 mb - 0.00 in0.0 mm 0.16 in4.1 mm
03:00 PM 77.3°F25.2°C 54.9°F12.7°C 46% 1.2 mph WNW1.9 kmh WNW 3.5 mph5.6 kmh 29.83 in1010.2 mb - 0.00 in0.0 mm 0.16 in4.1 mm
03:10 PM 77.6°F25.3°C 53.3°F11.8°C 43% 2.3 mph SSW3.7 kmh SSW 3.5 mph5.6 kmh 29.83 in1010.2 mb - 0.00 in0.0 mm 0.16 in4.1 mm
03:20 PM 77.0°F25.0°C 53.4°F11.9°C 44% 1.2 mph SW1.9 kmh SW 3.5 mph5.6 kmh 29.83 in1010.2 mb - 0.00 in0.0 mm 0.16 in4.1 mm
03:30 PM 76.6°F24.8°C 53.1°F11.7°C 44% 1.2 mph NW1.9 kmh NW 3.5 mph5.6 kmh 29.83 in1010.2 mb - 0.00 in0.0 mm 0.16 in4.1 mm
03:40 PM 76.5°F24.7°C 54.2°F12.3°C 46% 2.3 mph SW3.7 kmh SW 4.6 mph7.4 kmh 29.82 in1009.8 mb - 0.00 in0.0 mm 0.16 in4.1 mm
03:50 PM 76.2°F24.6°C 55.1°F12.8°C 48% 2.3 mph SW3.7 kmh SW 3.5 mph5.6 kmh 29.83 in1010.2 mb - 0.00 in0.0 mm 0.16 in4.1 mm
04:00 PM 76.2°F24.6°C 53.9°F12.2°C 46% 1.2 mph SW1.9 kmh SW 3.5 mph5.6 kmh 29.82 in1009.8 mb - 0.00 in0.0 mm 0.16 in4.1 mm
04:10 PM 76.2°F24.6°C 54.5°F12.5°C 47% 2.3 mph SW3.7 kmh SW 3.5 mph5.6 kmh 29.83 in1010.2 mb - 0.00 in0.0 mm 0.16 in4.1 mm
04:20 PM 76.1°F24.5°C 54.4°F12.4°C 47% 1.2 mph W1.9 kmh W 5.8 mph9.3 kmh 29.83 in1010.2 mb - 0.00 in0.0 mm 0.16 in4.1 mm
04:30 PM 75.5°F24.2°C 53.8°F12.1°C 47% Calm Calm 3.5 mph5.6 kmh 29.83 in1010.2 mb - 0.00 in0.0 mm 0.16 in4.1 mm
04:40 PM 75.3°F24.1°C 54.2°F12.3°C 48% 1.2 mph W1.9 kmh W 2.3 mph3.7 kmh 29.83 in1010.2 mb - 0.00 in0.0 mm 0.16 in4.1 mm
04:50 PM 75.2°F24.0°C 54.2°F12.3°C 48% Calm Calm 2.3 mph3.7 kmh 29.83 in1010.2 mb - 0.00 in0.0 mm 0.16 in4.1 mm
05:00 PM 74.5°F23.6°C 53.5°F11.9°C 48% 2.3 mph WSW3.7 kmh WSW 4.6 mph7.4 kmh 29.83 in1010.2 mb - 0.00 in0.0 mm 0.16 in4.1 mm
05:10 PM 73.4°F23.0°C 53.0°F11.7°C 49% Calm Calm 2.3 mph3.7 kmh 29.83 in1010.2 mb - 0.00 in0.0 mm 0.16 in4.1 mm
05:20 PM 72.7°F22.6°C 54.0°F12.2°C 52% 1.2 mph W1.9 kmh W 2.3 mph3.7 kmh 29.83 in1010.2 mb - 0.00 in0.0 mm 0.16 in4.1 mm
05:30 PM 72.0°F22.2°C 53.9°F12.2°C 53% 1.2 mph WSW1.9 kmh WSW 3.5 mph5.6 kmh 29.83 in1010.2 mb - 0.00 in0.0 mm 0.16 in4.1 mm
05:40 PM 71.5°F21.9°C 54.5°F12.5°C 55% Calm Calm 1.2 mph1.9 kmh 29.83 in1010.2 mb - 0.00 in0.0 mm 0.16 in4.1 mm
05:50 PM 71.0°F21.7°C 54.0°F12.2°C 55% Calm Calm 1.2 mph1.9 kmh 29.83 in1010.2 mb - 0.00 in0.0 mm 0.16 in4.1 mm
06:00 PM 70.5°F21.4°C 54.5°F12.5°C 57% 1.2 mph SW1.9 kmh SW 2.3 mph3.7 kmh 29.84 in1010.5 mb - 0.00 in0.0 mm 0.16 in4.1 mm
06:10 PM 70.0°F21.1°C 55.0°F12.8°C 59% 1.2 mph WSW1.9 kmh WSW 1.2 mph1.9 kmh 29.84 in1010.5 mb - 0.00 in0.0 mm 0.16 in4.1 mm
06:20 PM 69.6°F20.9°C 54.6°F12.6°C 59% Calm Calm 1.2 mph1.9 kmh 29.84 in1010.5 mb - 0.00 in0.0 mm 0.16 in4.1 mm
06:30 PM 69.1°F20.6°C 55.1°F12.8°C 61% Calm Calm 1.2 mph1.9 kmh 29.84 in1010.5 mb - 0.00 in0.0 mm 0.16 in4.1 mm
06:40 PM 68.5°F20.3°C 55.0°F12.8°C 62% Calm Calm 1.2 mph1.9 kmh 29.84 in1010.5 mb - 0.00 in0.0 mm 0.16 in4.1 mm
06:50 PM 68.1°F20.1°C 55.0°F12.8°C 63% Calm Calm 1.2 mph1.9 kmh 29.85 in1010.8 mb - 0.00 in0.0 mm 0.16 in4.1 mm
07:00 PM 67.7°F19.8°C 55.5°F13.1°C 65% Calm Calm 1.2 mph1.9 kmh 29.85 in1010.8 mb - 0.00 in0.0 mm 0.16 in4.1 mm
07:10 PM 67.2°F19.6°C 55.0°F12.8°C 65% Calm Calm -- 29.85 in1010.8 mb - 0.00 in0.0 mm 0.16 in4.1 mm
07:20 PM 66.8°F19.3°C 55.1°F12.8°C 66% Calm Calm -- 29.85 in1010.8 mb - 0.00 in0.0 mm 0.16 in4.1 mm
07:30 PM 66.3°F19.1°C 55.0°F12.8°C 67% Calm Calm -- 29.85 in1010.8 mb - 0.00 in0.0 mm 0.16 in4.1 mm
07:40 PM 66.1°F18.9°C 54.8°F12.7°C 67% Calm Calm -- 29.86 in1011.2 mb - 0.00 in0.0 mm 0.16 in4.1 mm
07:50 PM 65.7°F18.7°C 54.8°F12.7°C 68% Calm Calm -- 29.86 in1011.2 mb - 0.00 in0.0 mm 0.16 in4.1 mm
08:00 PM 65.4°F18.6°C 55.4°F13.0°C 70% Calm Calm -- 29.86 in1011.2 mb - 0.00 in0.0 mm 0.16 in4.1 mm
08:10 PM 64.5°F18.1°C 55.3°F12.9°C 72% Calm Calm -- 29.86 in1011.2 mb - 0.00 in0.0 mm 0.16 in4.1 mm
08:20 PM 64.0°F17.8°C 55.2°F12.9°C 73% Calm Calm -- 29.86 in1011.2 mb - 0.00 in0.0 mm 0.16 in4.1 mm
08:30 PM 63.8°F17.7°C 55.0°F12.8°C 73% Calm Calm -- 29.86 in1011.2 mb - 0.00 in0.0 mm 0.16 in4.1 mm
08:40 PM 63.6°F17.6°C 55.2°F12.9°C 74% Calm Calm -- 29.87 in1011.5 mb - 0.00 in0.0 mm 0.16 in4.1 mm
08:50 PM 63.4°F17.4°C 55.3°F12.9°C 75% Calm Calm -- 29.87 in1011.5 mb - 0.00 in0.0 mm 0.16 in4.1 mm
09:00 PM 63.1°F17.3°C 55.4°F13.0°C 76% Calm Calm 2.3 mph3.7 kmh 29.87 in1011.5 mb - 0.00 in0.0 mm 0.16 in4.1 mm
09:10 PM 62.5°F16.9°C 55.2°F12.9°C 77% 1.2 mph N1.9 kmh N 3.5 mph5.6 kmh 29.87 in1011.5 mb - 0.00 in0.0 mm 0.16 in4.1 mm
09:20 PM 62.2°F16.8°C 55.3°F12.9°C 78% 1.2 mph N1.9 kmh N 2.3 mph3.7 kmh 29.88 in1011.9 mb - 0.00 in0.0 mm 0.16 in4.1 mm
09:30 PM 62.0°F16.7°C 55.1°F12.8°C 78% Calm Calm -- 29.88 in1011.9 mb - 0.00 in0.0 mm 0.16 in4.1 mm
09:40 PM 61.9°F16.6°C 55.0°F12.8°C 78% Calm Calm 1.2 mph1.9 kmh 29.88 in1011.9 mb - 0.00 in0.0 mm 0.16 in4.1 mm
09:50 PM 61.7°F16.5°C 54.8°F12.7°C 78% Calm Calm 1.2 mph1.9 kmh 29.88 in1011.9 mb - 0.00 in0.0 mm 0.16 in4.1 mm
10:00 PM 61.6°F16.4°C 55.0°F12.8°C 79% Calm Calm 1.2 mph1.9 kmh 29.88 in1011.9 mb - 0.00 in0.0 mm 0.16 in4.1 mm
10:10 PM 61.6°F16.4°C 55.0°F12.8°C 79% Calm Calm -- 29.88 in1011.9 mb - 0.00 in0.0 mm 0.16 in4.1 mm
10:20 PM 61.5°F16.4°C 54.9°F12.7°C 79% Calm Calm -- 29.88 in1011.9 mb - 0.00 in0.0 mm 0.16 in4.1 mm
10:30 PM 61.5°F16.4°C 54.9°F12.7°C 79% Calm Calm -- 29.88 in1011.9 mb - 0.00 in0.0 mm 0.16 in4.1 mm
10:40 PM 61.4°F16.3°C 54.8°F12.7°C 79% Calm Calm -- 29.89 in1012.2 mb - 0.00 in0.0 mm 0.16 in4.1 mm
10:50 PM 61.3°F16.3°C 54.8°F12.7°C 79% Calm Calm 2.3 mph3.7 kmh 29.89 in1012.2 mb - 0.00 in0.0 mm 0.16 in4.1 mm
11:00 PM 61.3°F16.3°C 54.7°F12.6°C 79% Calm Calm -- 29.89 in1012.2 mb - 0.00 in0.0 mm 0.16 in4.1 mm
11:10 PM 61.3°F16.3°C 54.7°F12.6°C 79% 1.2 mph WNW1.9 kmh WNW 2.3 mph3.7 kmh 29.89 in1012.2 mb - 0.00 in0.0 mm 0.16 in4.1 mm
11:20 PM 61.2°F16.2°C 55.0°F12.8°C 80% Calm Calm -- 29.89 in1012.2 mb - 0.00 in0.0 mm 0.16 in4.1 mm
11:30 PM 61.0°F16.1°C 54.4°F12.4°C 79% Calm Calm -- 29.89 in1012.2 mb - 0.00 in0.0 mm 0.16 in4.1 mm
11:40 PM 60.7°F15.9°C 54.5°F12.5°C 80% Calm Calm 1.2 mph1.9 kmh 29.89 in1012.2 mb - 0.00 in0.0 mm 0.16 in4.1 mm
11:50 PM 60.5°F15.8°C 54.3°F12.4°C 80% Calm Calm -- 29.89 in1012.2 mb - 0.00 in0.0 mm 0.16 in4.1 mm